Saint Osyth, United Kingdom
Current Conditions -  °F | °C
As of 12:50 PM on Thursday 30 Oct 2014 (Local Time) from EGUW Reporting Station
Haze Haze  
Wind Chill: 63°   Ceiling: 1200
Heat Index: 63°   Visibility: 5mi
Dew Point: 57°   Wind: 9mph
Humidity: 82%   Direction: 210°SSW
Pressure: 30.06"   Gusts: NA
Location:  51.8°N, 1.08°E
Report Text: EGUW 301250Z 21008KT 8000 HZ BKN012 17/14 Q1018 GRN BECMG NSW SCT015 WHT
Loading
Personal Weather Stations






























Interactive Weather Map
Tropical Storm Tracking
New forecast layout! Learn more

10-Day Weather Forecast

Advertisements
Track Severe Weather on mobile